Timeline UpdatesTrip UpdatesNews PostsPvt PostsTravel TipsAdmin PostsConv PostsFollowed PostsChat RequestsBlog PostsPNR Posts

Disclaimer
Search
 
 
Tue Jul 29, 2014 20:18:36 ISTHomeTrainsΣChainsAtlasPNRForumGalleryNewsFAQTripsMembersLoginFeedback
No Recent News for this Train
Other Trains in the News **new
Latest...
..
Sat Jul 12, 2014 (08:04AM)
⇐ Return Journey: Train# 13134

13133/Sealdah - Varanasi (Upper India) Express

Feb 08 2014 (8:50AM)
Change Departure Station:
Change Arrival Station:
Post a Train Travel TipPost a Train Travel Tip **new
Post a Comment/Question/Picture/VideoPost a Comment/Question/Picture/Video
Pantry/Catering
✕ NO Pantry Car
✕ NO Catering
RSA - Rake Sharing
13119/Sealdah - Old Delhi Express
Rake/Coach Composition
LOCO-SLR-GS-GS-GS-GS-GS-GS-B1-S1-S2-S3-S4-GS-GS-SLR
Loco
BWN WDM-3A
News    PNR    Forum    Time-Table    Availability    Fare Chart    Map    Arr/Dep History    Trips    Gallery    ΣChains    X/O    Timeline    
Travel Time: 24h 25m    80 halts    Distance: 871 km    Avg Speed: 35 km/hr
Type: Mail/Express
Zone: ER/Eastern
Departs @ 21:15 (Avg 5m late)
Platform# 7
 MTW FS
Kolkata Sealdah/SDAH 
Arrives @ 21:40 +1 night (Avg 1h 1m late)
Platform# ???
S TWT S
Varanasi Junction/BSB 

80 halts. 205 intermediate Stations between Kolkata Sealdah and Varanasi Junction

Show ALL intermediate Stations  Show Old Time-Table

#CodeStation NameX/OArrivesAvgDepartsAvgHaltPFDay#KmSpeedElevZoneAddress
1SDAH»Kolkata Sealdah (20)»  -21:15+5710.0258mERPh : 033-23503535 (For North: APC Roy Road) Kolkata 700014, West Bengal
2BNXRBidhan Nagar Road (4)  21:23+021:24+01m213.3378mERKolkata, West Bengal
3DAKEDakhineswar (2)  21:39+021:40+01m1112.76910mERDist - 24 paraganas ( North ), West Bengal
4BWNBarddhaman Junction (8)X  22:57+1723:02+175m11101.36034mERDist - Barddhaman, West Bengal
5GKHGuskara (2)  23:35+2623:36+261m11134.24541mERDist - Bardhaman, West Bengal
6BHPBolpur Shantiniketan (3)X  00:01+1800:06+185m12153.13259mERBolpur, West Bengal
7PNEPrantik (3)  00:14+2100:15+211m12157.45748mERPrantik, West Bengal
8AMPAhmadpur Junction (3)  00:31+2000:32+211m12172.65346mERDist - Birbhum, West Bengal
9SNTSainthia Junction (4)X  00:47+900:48+121m32185.86058mERDist - Birbhum, West Bengal
10RPHRampurhat (3)X  01:16+1601:21+215m32213.85041mERDIST - Birbhum, West Bengal
11NHTNalhati Junction (4)X  01:38+2601:40+262m32227.97048mERNalhati, West Bengal
12MRRMurarai (3)  01:54+2901:55+361m12244.22836mERMurarai, West Bengal
13RJGRajgram (3)X  02:20+2402:21+241m32255.84932mERRajgram, West Bengal
14PKRPakur (2)X  02:34+2002:35+201m12266.43337mERDist:- Pakur, Jharkhand
15KLPKotalpukur (3)X  02:57+1802:58+201m--2278.43740mERKotalpukur, Jharkhand
16BHWBarharwa Junction (3)X  03:21+2003:26+205m12292.57736mERBarharwa, Jharkhand
17TPHTinpahar Junction (3)  03:39+2703:40+301m12309.16445mERBamangawan, Jharkhand
18TLJTaljhari  03:49+3303:51+332m--2318.87238mERTaljhari, Jharkhand
19SLJSakrigali Junction (3)  04:08+4304:10+452m--2339.12345mERSakrigali, Jharkhand
20SBGSahibganj Junction (3)X  04:30+3904:38+428m22346.97038mERSahibganj, Jharkhand
21MZCMirza Cheuki (3)  04:51+4804:53+502m12362.05638mERBihar, Bihar
22PPTPirpainti (2)  05:02+5405:04+572m--2370.44853mERBhagalpur, Bihar
23SVRPShivanarayanpur (2)  05:15+5705:17+572m--2379.32647mERShivanarayanpur, Bihar
24BKSLBikram Shila (2)  05:25+5805:27+592m--2382.82558mERBikram Shila, Bihar
25CLGKahalgaon (2)X  05:46+4805:48+522m22390.83744mERBhagalpur, Bihar
26EKCEkchari (1)  05:55+5305:57+532m12395.24937mERNational Highway 80, Bihar
27GGAGhoga (2)  06:04+5406:06+542m--2400.95042mERGhoga, Bihar
28SBOSabaur (3)  06:21+5706:23+572m--2413.33542mERSabour, Bihar
29BGPBhagalpur Junction (6)  06:36+4406:51+4015m--2420.94749mERBhagalpur, Bihar
30NATNathnagar (2)X  06:57+5206:59+522m--2425.53748mERBhagalpur, Bihar
31MPYMurarpur (2)  07:07+5407:08+541m--2430.54538mERMau, Bihar
32AKNAkbarnagar (3)  07:15+5007:17+502m--2435.75539mERTilakpur, Bihar
33SGGSultanGanj (3)  07:28+4807:29+491m--2445.84742mERSultanganj, Bihar
34BUPBariarpur (3)X  07:52+4507:54+452m--2463.74242mERMunger, Bihar
35RPURRatanpur (2)X  08:01+4508:03+452m--2468.62246mERRatanpur Railway Station, Bihar
36JMPJamalpur Junction (4)X  08:20+3508:35+3315m--2474.94359mERJamalpur 06344-243101, Bihar
37DRTPDasharathpur  08:44+3908:46+392m--2481.24748mERDharhara, Bihar
38DRHDharhara (2)X  08:53+3308:55+332m--2486.75555mERDharhara, Bihar
39AHAAbhaipur  09:06+3309:08+342m--2496.74952mERAbhaipur, Bihar
40KJHKajra (2)  09:17+3909:19+392m--2504.01550mERLakhisarai District, Bihar
41KIULKiul Junction (5)X  10:22+2710:30+278m--2519.71453mECRDist. Lakhisarai, Bihar
42LKRLuckeesarai Junction (2)X  10:36+2110:38+222m--2521.15352mECRLakhisarai, Bihar
43BRYABarhiya (3)X  10:55+3410:57+382m--2536.27047mECRBarahiya, Bihar
44HTZHathidah Junction (2)  11:05+3811:07+382m22545.54250mECRMusahari, Bihar
45MKAMokama Junction (3)  11:19+3511:21+462m--2553.98748mECRPatna, Bihar
46MORMorX  11:26+5811:28+582m--2561.26246mECRMor, Bihar
47PHKPunarakh  11:36+5911:38+1:072m--2569.46951mECRPunarakh, Bihar
48BARHBarh (3)X  11:47+1:0311:49+1:122m--2579.86949mECRBarh, Bihar
49ATLAthmal Gola (2)O  11:57+1:2111:59+1:212m--2589.04952mECRPatna, Bihar
50BKPBakhtiyarpur Junction (5)  12:10+1:2712:12+1:312m--2598.16351mECRPatna, Bihar
51KWOKarauta (2)  12:18+1:2612:20+1:292m--2604.47154mECRKarauta, Bihar
52KOOKhusropur (2)X  12:27+1:3612:29+1:392m--2612.65352mECRPatna, Bihar
53HDEHardas Bigha  12:36+1:2112:37+1:211m--2618.8553mECRFatwah, Bihar
54FUTFatwa (6)X  13:06+1:1513:08+1:202m--2621.12153mECRPatna, Bihar
55PNCPatna Saheb (3)O  13:43+1:0213:45+1:062m--2633.31259mECRPatna, Bihar
56GZHGulzarbagh (3)X  14:00+1:0514:02+1:062m--2636.33255mECRPatna, Bihar
57RJPBRajendra Nagar Bihar (4)  14:10+1:0114:12+1:022m--2640.62055mECRPatna 800001, Bihar
58PNBEPatna Junction (10)  14:20+5914:30+5910m42643.23657mECRPatna 800001, Bihar
59PWSPhulwari Sharif (3)  14:40+1:1514:42+1:172m--2649.22658mECRPatna, Bihar
60DNRDanapur (5)X  14:50+1:2215:00+1:2210m--2652.69158mECRKhagaul, Bihar
61NEONeora (2)X  15:04+1:2415:06+1:252m--2658.66161mECRNational Highway 98, Bihar
62SDESadisopur (2)  15:13+1:2915:14+1:291m--2665.75164mECRSadisopur, Bihar
63BTABihta (2)X  15:19+1:0615:21+1:082m--2669.95462mECRDistt: Patna, Bihar
64VHCHChakki Block Cabin  15:28+1:2415:30+1:222m--2676.24963mECRNational Highway 30, Bihar
65KWRKoelwar (2)X  15:33+1:2815:35+1:282m--2678.73665mECRNational Highway 30, Bihar
66KUAKulharia (2)  15:41+1:2415:43+1:242m--2682.24061mECRChandi Sahar Rd, Bihar
67ARAAra Junction (3)  15:58+1:0316:03+1:045m--2692.17463mECRarrah( 06182-233411), Bihar
68KRSKarisath (2)  16:11+1:2716:13+1:272m--2702.07765mECRKarisath, Bihar
69BEABihiya (3)  16:22+1:1416:24+1:212m--2713.55967mECRBehea, Bihar
70BYNBanahi (2)  16:30+1:4116:32+1:402m--2719.56667mECRBanahi, Bihar
71RPRRaghunathpur (4)  16:40+1:3716:42+1:412m--2728.35069mECRRaghunathpur, Bihar
72TWGTwining Ganj16:52+1:4616:54+1:462m--2736.7-70mECRArrah Buxar Rd, Bihar
73DUREDumraon (3)X  16:54+1:5116:56+1:582m--2744.34770mECRDumraon, Bihar
74BXRBuxar (3)  17:17+1:0817:22+1:095m--2760.68267mECRBuxar, Bihar
75CSAChausa (2)X  17:30+2:0217:32+2:052m--2771.54668mECRState Highway 14, Bihar
76GMRGahmar (2)  17:44+1:5717:46+1:572m--2780.87068mECRDistt: Ghazipur, Uttar Pradesh
77BWHBhadaura (2)  17:53+2:0517:55+2:082m--2789.04769mECRGhazipur, Uttar Pradesh
78DLNDildarnagar Junction (2)  18:05+1:5118:10+1:495m--2796.88172mECRDildarnagar, Uttar Pradesh
79ZNAZamania (2)  18:20+2:1018:22+2:122m--2810.32077mECRGhazipur, Uttar Pradesh
80SLDSakaldiha (2)XO  19:40+1:1819:41+1:211m--2836.31981mECRState Highway 69, Uttar Pradesh
81MGSMughal Sarai Junction (8)X  20:40+5720:50+5810m32854.52083mECRMughalsarai 232101, Uttar Pradesh
82BSB•Varanasi Junction (9)•  21:40+1:01---2871.0-82mNRVaranasi 221002, Uttar Pradesh
Scroll to Top
Scroll to Bottom